createdAt,value
2023-05-05T00:00:51.613Z,94957.00
2023-05-05T00:01:51.694Z,94959.00
2023-05-05T00:02:51.871Z,94959.00
2023-05-05T00:03:51.943Z,94957.00
2023-05-05T00:04:51.880Z,94957.00
2023-05-05T00:05:51.981Z,94957.00
2023-05-05T00:06:52.031Z,94959.00
2023-05-05T00:07:52.112Z,94955.00
2023-05-05T00:08:52.141Z,94957.00
2023-05-05T00:09:52.193Z,94957.00
2023-05-05T00:10:52.290Z,94959.00
2023-05-05T00:11:52.376Z,94957.00
2023-05-05T00:12:52.426Z,94957.00
2023-05-05T00:13:52.523Z,94961.00
2023-05-05T00:14:52.543Z,94959.00
2023-05-05T00:15:52.562Z,94959.00
2023-05-05T00:16:52.670Z,94959.00
2023-05-05T00:17:52.799Z,94957.00
2023-05-05T00:18:52.865Z,94957.00
2023-05-05T00:19:53.685Z,94961.00
2023-05-05T00:20:52.856Z,94959.00
2023-05-05T00:21:52.939Z,94961.00
2023-05-05T00:22:52.999Z,94957.00
2023-05-05T00:23:53.021Z,94959.00
2023-05-05T00:24:53.101Z,94957.00
2023-05-05T00:25:53.150Z,94961.00
2023-05-05T00:26:53.219Z,94959.00
2023-05-05T00:27:53.290Z,94957.00
2023-05-05T00:28:53.343Z,94959.00
2023-05-05T00:29:53.423Z,94961.00
2023-05-05T00:30:53.501Z,94959.00
2023-05-05T00:31:53.553Z,94961.00
2023-05-05T00:32:53.671Z,94961.00
2023-05-05T00:33:53.694Z,94963.00
2023-05-05T00:34:53.699Z,94963.00
2023-05-05T00:35:53.749Z,94961.00
2023-05-05T00:36:53.848Z,94963.00
2023-05-05T00:37:54.065Z,94961.00
2023-05-05T00:38:53.978Z,94963.00
2023-05-05T00:39:54.030Z,94959.00
2023-05-05T00:40:54.125Z,94963.00
2023-05-05T00:41:54.127Z,94963.00
2023-05-05T00:42:54.234Z,94963.00
2023-05-05T00:43:54.310Z,94961.00
2023-05-05T00:44:54.347Z,94963.00
2023-05-05T00:45:54.430Z,94965.00
2023-05-05T00:46:54.471Z,94965.00
2023-05-05T00:47:54.653Z,94963.00
2023-05-05T00:48:54.696Z,94965.00
2023-05-05T00:49:54.648Z,94965.00
2023-05-05T00:50:54.690Z,94971.00
2023-05-05T00:51:54.868Z,94967.00
2023-05-05T00:52:54.846Z,94969.00
2023-05-05T00:53:54.893Z,94965.00
2023-05-05T00:54:54.941Z,94969.00
2023-05-05T00:55:55.037Z,94967.00
2023-05-05T00:56:55.104Z,94965.00
2023-05-05T00:57:55.167Z,94967.00
2023-05-05T00:58:55.246Z,94963.00
2023-05-05T00:59:55.282Z,94965.00
2023-05-05T01:00:55.355Z,94961.00
2023-05-05T01:01:55.473Z,94959.00
2023-05-05T01:02:55.562Z,94963.00
2023-05-05T01:03:55.649Z,94963.00
2023-05-05T01:04:55.651Z,94961.00
2023-05-05T01:05:55.632Z,94961.00
2023-05-05T01:06:55.688Z,94957.00
2023-05-05T01:07:55.754Z,94957.00
2023-05-05T01:08:55.823Z,94959.00
2023-05-05T01:10:07.604Z,94957.00
2023-05-05T01:10:56.885Z,94961.00
2023-05-05T01:11:55.829Z,94961.00
2023-05-05T01:12:55.921Z,94959.00
2023-05-05T01:13:55.805Z,94959.00
2023-05-05T01:14:55.788Z,94957.00
2023-05-05T01:15:55.827Z,94957.00
2023-05-05T01:16:55.811Z,94957.00
2023-05-05T01:17:55.830Z,94955.00
2023-05-05T01:18:55.819Z,94957.00
2023-05-05T01:19:55.977Z,94957.00
2023-05-05T01:20:55.938Z,94959.00
2023-05-05T01:21:56.026Z,94957.00
2023-05-05T01:22:56.074Z,94959.00
2023-05-05T01:23:56.105Z,94959.00
2023-05-05T01:24:56.165Z,94959.00
2023-05-05T01:25:56.235Z,94959.00
2023-05-05T01:26:56.299Z,94959.00
2023-05-05T01:27:56.376Z,94961.00
2023-05-05T01:28:58.248Z,94961.00
2023-05-05T01:29:56.508Z,94963.00
2023-05-05T01:30:56.563Z,94963.00
2023-05-05T01:31:56.751Z,94965.00
2023-05-05T01:32:56.729Z,94965.00
2023-05-05T01:33:56.749Z,94965.00
2023-05-05T01:34:56.758Z,94963.00
2023-05-05T01:35:56.838Z,94961.00
2023-05-05T01:36:56.903Z,94963.00
2023-05-05T01:37:56.973Z,94963.00
2023-05-05T01:38:57.024Z,94965.00
2023-05-05T01:39:57.013Z,94963.00
2023-05-05T01:40:57.109Z,94963.00
2023-05-05T01:41:57.146Z,94963.00
2023-05-05T01:42:57.224Z,94963.00
2023-05-05T01:43:57.258Z,94965.00
2023-05-05T01:44:57.327Z,94965.00
2023-05-05T01:45:57.480Z,94965.00
2023-05-05T01:46:57.431Z,94963.00
2023-05-05T01:47:57.539Z,94965.00
2023-05-05T01:48:57.568Z,94965.00
2023-05-05T01:49:57.620Z,94965.00
2023-05-05T01:50:57.669Z,94965.00
2023-05-05T01:51:57.738Z,94965.00
2023-05-05T01:52:57.768Z,94967.00
2023-05-05T01:53:57.837Z,94965.00
2023-05-05T01:54:57.886Z,94963.00
2023-05-05T01:55:57.976Z,94965.00
2023-05-05T01:56:57.982Z,94965.00
2023-05-05T01:57:58.034Z,94965.00
2023-05-05T01:58:58.122Z,94963.00
2023-05-05T01:59:58.182Z,94967.00
2023-05-05T02:00:58.231Z,94969.00
2023-05-05T02:01:58.295Z,94967.00
2023-05-05T02:02:58.427Z,94969.00
2023-05-05T02:03:58.375Z,94969.00
2023-05-05T02:04:58.501Z,94967.00
2023-05-05T02:05:58.506Z,94967.00
2023-05-05T02:06:58.583Z,94969.00
2023-05-05T02:07:58.687Z,94967.00
2023-05-05T02:08:58.693Z,94969.00
2023-05-05T02:09:58.691Z,94971.00
2023-05-05T02:10:58.733Z,94975.00
2023-05-05T02:11:58.789Z,94975.00
2023-05-05T02:12:58.913Z,94977.00
2023-05-05T02:13:58.943Z,94977.00
2023-05-05T02:14:58.937Z,94979.00
2023-05-05T02:15:59.014Z,94977.00
2023-05-05T02:16:59.024Z,94979.00
2023-05-05T02:17:59.096Z,94981.00
2023-05-05T02:18:59.090Z,94985.00
2023-05-05T02:19:59.129Z,94985.00
2023-05-05T02:20:59.233Z,94987.00
2023-05-05T02:21:59.218Z,94989.00
2023-05-05T02:22:59.296Z,94989.00
2023-05-05T02:23:59.267Z,94989.00
2023-05-05T02:24:59.408Z,94991.00
2023-05-05T02:25:59.405Z,94991.00
2023-05-05T02:26:59.372Z,94991.00
2023-05-05T02:27:59.431Z,94989.00
2023-05-05T02:28:59.472Z,94991.00
2023-05-05T02:29:59.536Z,94993.00
2023-05-05T02:30:59.659Z,94991.00
2023-05-05T02:31:59.589Z,94989.00
2023-05-05T02:33:00.348Z,94991.00
2023-05-05T02:33:59.650Z,94991.00
2023-05-05T02:34:59.665Z,94989.00
2023-05-05T02:35:59.775Z,94989.00
2023-05-05T02:36:59.762Z,94987.00
2023-05-05T02:37:59.794Z,94987.00
2023-05-05T02:38:59.837Z,94989.00
2023-05-05T02:39:59.943Z,94989.00
2023-05-05T02:40:59.923Z,94985.00
2023-05-05T02:41:59.959Z,94989.00
2023-05-05T02:43:00.059Z,94991.00
2023-05-05T02:44:00.032Z,94989.00
2023-05-05T02:45:00.061Z,94989.00
2023-05-05T02:46:00.187Z,94989.00
2023-05-05T02:47:00.173Z,94985.00
2023-05-05T02:48:00.287Z,94989.00
2023-05-05T02:49:00.288Z,94985.00
2023-05-05T02:50:00.288Z,94985.00
2023-05-05T02:51:00.365Z,94987.00
2023-05-05T02:52:00.451Z,94987.00
2023-05-05T02:53:00.629Z,94985.00
2023-05-05T02:54:00.522Z,94985.00
2023-05-05T02:55:00.586Z,94985.00
2023-05-05T02:56:00.603Z,94985.00
2023-05-05T02:57:00.739Z,94983.00
2023-05-05T02:58:00.756Z,94985.00
2023-05-05T02:59:00.843Z,94983.00
2023-05-05T03:00:00.881Z,94987.00
2023-05-05T03:01:00.951Z,94985.00
2023-05-05T03:02:00.980Z,94989.00
2023-05-05T03:03:01.197Z,94987.00
2023-05-05T03:04:01.116Z,94989.00
2023-05-05T03:05:01.199Z,94989.00
2023-05-05T03:06:01.251Z,94989.00
2023-05-05T03:07:01.319Z,94989.00
2023-05-05T03:08:01.389Z,94991.00
2023-05-05T03:09:01.509Z,94993.00
2023-05-05T03:10:01.478Z,94995.00
2023-05-05T03:11:02.285Z,94995.00
2023-05-05T03:12:01.619Z,94993.00
2023-05-05T03:13:01.705Z,94993.00
2023-05-05T03:14:01.710Z,94995.00
2023-05-05T03:15:01.789Z,94989.00
2023-05-05T03:16:01.945Z,94991.00
2023-05-05T03:17:01.916Z,94993.00
2023-05-05T03:18:02.024Z,94997.00
2023-05-05T03:19:02.057Z,94997.00
2023-05-05T03:20:03.757Z,94999.00
2023-05-05T03:21:02.157Z,94999.00
2023-05-05T03:22:02.206Z,94997.00
2023-05-05T03:23:02.251Z,95001.00
2023-05-05T03:24:02.308Z,94999.00
2023-05-05T03:25:02.344Z,95003.00
2023-05-05T03:26:02.401Z,95001.00
2023-05-05T03:27:02.414Z,95003.00
2023-05-05T03:28:02.494Z,95001.00
2023-05-05T03:29:02.597Z,94999.00
2023-05-05T03:30:02.601Z,95003.00
2023-05-05T03:31:02.642Z,95001.00
2023-05-05T03:32:02.774Z,94997.00
2023-05-05T03:33:02.752Z,94999.00
2023-05-05T03:34:02.744Z,94997.00
2023-05-05T03:35:02.755Z,94997.00
2023-05-05T03:36:02.834Z,94993.00
2023-05-05T03:37:02.848Z,94993.00
2023-05-05T03:38:02.869Z,94991.00
2023-05-05T03:39:02.908Z,94991.00
2023-05-05T03:40:02.983Z,94991.00
2023-05-05T03:41:02.983Z,94993.00
2023-05-05T03:42:02.992Z,94991.00
2023-05-05T03:43:03.332Z,94991.00
2023-05-05T03:44:03.090Z,94993.00
2023-05-05T03:45:03.093Z,94993.00
2023-05-05T03:46:03.855Z,94993.00
2023-05-05T03:47:03.187Z,94993.00
2023-05-05T03:48:03.242Z,94991.00
2023-05-05T03:49:03.315Z,94991.00
2023-05-05T03:50:03.295Z,94991.00
2023-05-05T03:51:03.400Z,94991.00
2023-05-05T03:52:03.428Z,94993.00
2023-05-05T03:53:03.487Z,94991.00
2023-05-05T03:54:03.481Z,94987.00
2023-05-05T03:55:03.512Z,94987.00
2023-05-05T03:56:03.562Z,94989.00
2023-05-05T03:57:03.546Z,94987.00
2023-05-05T03:58:03.596Z,94987.00
2023-05-05T03:59:03.616Z,94987.00
2023-05-05T04:00:03.636Z,94989.00
2023-05-05T04:01:03.704Z,94989.00
2023-05-05T04:02:03.718Z,94989.00
2023-05-05T04:03:03.889Z,94987.00
2023-05-05T04:04:03.796Z,94985.00
2023-05-05T04:05:03.831Z,94987.00
2023-05-05T04:06:03.906Z,94985.00
2023-05-05T04:07:04.019Z,94991.00
2023-05-05T04:08:03.929Z,94987.00
2023-05-05T04:09:04.010Z,94989.00
2023-05-05T04:10:04.046Z,94987.00
2023-05-05T04:11:04.052Z,94991.00
2023-05-05T04:12:04.119Z,94987.00
2023-05-05T04:13:04.233Z,94987.00
2023-05-05T04:14:04.168Z,94987.00
2023-05-05T04:15:04.229Z,94985.00
2023-05-05T04:16:04.323Z,94985.00
2023-05-05T04:17:04.338Z,94985.00
2023-05-05T04:18:04.455Z,94987.00
2023-05-05T04:19:04.428Z,94985.00
2023-05-05T04:20:04.522Z,94985.00
2023-05-05T04:21:04.559Z,94985.00
2023-05-05T04:22:04.729Z,94987.00
2023-05-05T04:23:04.706Z,94987.00
2023-05-05T04:24:04.758Z,94989.00
2023-05-05T04:25:04.826Z,94985.00
2023-05-05T04:26:04.847Z,94989.00
2023-05-05T04:27:04.920Z,94989.00
2023-05-05T04:28:05.005Z,94989.00
2023-05-05T04:29:05.049Z,94987.00
2023-05-05T04:30:05.133Z,94989.00
2023-05-05T04:31:05.305Z,94997.00
2023-05-05T04:32:05.161Z,95001.00
2023-05-05T04:33:05.239Z,95001.00
2023-05-05T04:34:05.318Z,95003.00
2023-05-05T04:35:05.353Z,95005.00
2023-05-05T04:36:05.407Z,95003.00
2023-05-05T04:37:05.466Z,95005.00
2023-05-05T04:38:05.527Z,95003.00
2023-05-05T04:39:05.618Z,95003.00
2023-05-05T04:40:05.615Z,95003.00
2023-05-05T04:41:05.595Z,95006.00
2023-05-05T04:42:05.652Z,95005.00
2023-05-05T04:43:05.722Z,95006.00
2023-05-05T04:44:05.742Z,95005.00
2023-05-05T04:45:05.771Z,95008.00
2023-05-05T04:46:05.968Z,95008.00
2023-05-05T04:47:05.876Z,95008.00
2023-05-05T04:48:05.983Z,95010.00
2023-05-05T04:49:05.996Z,95008.00
2023-05-05T04:50:06.224Z,95008.00
2023-05-05T04:51:06.075Z,95008.00
2023-05-05T04:52:06.096Z,95012.00
2023-05-05T04:53:06.162Z,95012.00
2023-05-05T04:54:06.236Z,95012.00
2023-05-05T04:55:06.203Z,95014.00
2023-05-05T04:56:06.281Z,95016.00
2023-05-05T04:57:06.245Z,95018.00
2023-05-05T04:58:06.318Z,95022.00
2023-05-05T04:59:06.349Z,95022.00
2023-05-05T05:00:06.518Z,95024.00
2023-05-05T05:01:06.373Z,95022.00
2023-05-05T05:02:06.448Z,95024.00
2023-05-05T05:03:06.513Z,95022.00
2023-05-05T05:04:06.502Z,95020.00
2023-05-05T05:05:06.497Z,95020.00
2023-05-05T05:06:06.529Z,95020.00
2023-05-05T05:07:06.582Z,95022.00
2023-05-05T05:08:06.877Z,95022.00
2023-05-05T05:09:06.582Z,95024.00
2023-05-05T05:10:06.789Z,95024.00
2023-05-05T05:11:07.347Z,95024.00
2023-05-05T05:12:06.629Z,95026.00
2023-05-05T05:13:06.671Z,95028.00
2023-05-05T05:14:06.663Z,95028.00
2023-05-05T05:15:06.667Z,95024.00
2023-05-05T05:16:06.719Z,95024.00
2023-05-05T05:17:06.684Z,95024.00
2023-05-05T05:18:06.784Z,95026.00
2023-05-05T05:19:06.753Z,95028.00
2023-05-05T05:20:06.919Z,95028.00
2023-05-05T05:21:06.766Z,95030.00
2023-05-05T05:22:06.754Z,95026.00
2023-05-05T05:23:06.838Z,95028.00
2023-05-05T05:24:06.827Z,95026.00
2023-05-05T05:25:06.872Z,95026.00
2023-05-05T05:26:07.910Z,95026.00
2023-05-05T05:27:09.688Z,95026.00
2023-05-05T05:28:10.723Z,95030.00
2023-05-05T05:29:06.970Z,95028.00
2023-05-05T05:30:07.208Z,95026.00
2023-05-05T05:31:06.907Z,95030.00
2023-05-05T05:32:07.055Z,95030.00
2023-05-05T05:33:06.901Z,95028.00
2023-05-05T05:34:06.815Z,95028.00
2023-05-05T05:35:06.960Z,95028.00
2023-05-05T05:36:06.818Z,95026.00
2023-05-05T05:37:06.807Z,95030.00
2023-05-05T05:38:07.370Z,95028.00
2023-05-05T05:39:06.870Z,95028.00
2023-05-05T05:40:06.957Z,95028.00
2023-05-05T05:41:07.392Z,95028.00
2023-05-05T05:42:06.988Z,95028.00
2023-05-05T05:43:06.761Z,95026.00
2023-05-05T05:44:06.761Z,95024.00
2023-05-05T05:45:06.737Z,95022.00
2023-05-05T05:46:09.035Z,95022.00
2023-05-05T05:47:06.989Z,95018.00
2023-05-05T05:48:07.112Z,95020.00
2023-05-05T05:49:07.835Z,95022.00
2023-05-05T05:50:07.328Z,95020.00
2023-05-05T05:51:07.867Z,95020.00
2023-05-05T05:52:07.111Z,95024.00
2023-05-05T05:53:07.163Z,95022.00
2023-05-05T05:54:07.211Z,95022.00
2023-05-05T05:55:07.277Z,95022.00
2023-05-05T05:56:07.333Z,95022.00
2023-05-05T05:57:07.422Z,95022.00
2023-05-05T05:58:07.479Z,95022.00
2023-05-05T05:59:07.630Z,95022.00
2023-05-05T06:00:07.927Z,95024.00
2023-05-05T06:01:07.711Z,95022.00
2023-05-05T06:02:07.766Z,95024.00
2023-05-05T06:03:08.173Z,95024.00
2023-05-05T06:04:07.957Z,95026.00
2023-05-05T06:05:07.894Z,95024.00
2023-05-05T06:06:07.939Z,95022.00
2023-05-05T06:07:08.835Z,95022.00
2023-05-05T06:08:08.022Z,95022.00
2023-05-05T06:09:08.146Z,95022.00
2023-05-05T06:10:25.659Z,95024.00
2023-05-05T06:11:09.137Z,95026.00
2023-05-05T06:12:08.104Z,95022.00
2023-05-05T06:13:08.201Z,95024.00
2023-05-05T06:14:08.085Z,95024.00
2023-05-05T06:15:08.126Z,95022.00
2023-05-05T06:16:08.108Z,95024.00
2023-05-05T06:17:08.092Z,95024.00
2023-05-05T06:18:08.078Z,95020.00
2023-05-05T06:19:08.185Z,95020.00
2023-05-05T06:20:09.022Z,95022.00
2023-05-05T06:21:08.881Z,95018.00
2023-05-05T06:22:08.023Z,95016.00
2023-05-05T06:23:08.057Z,95018.00
2023-05-05T06:24:08.840Z,95016.00
2023-05-05T06:25:08.139Z,95016.00
2023-05-05T06:26:08.164Z,95014.00
2023-05-05T06:27:09.875Z,95014.00
2023-05-05T06:28:08.223Z,95016.00
2023-05-05T06:29:09.570Z,95014.00
2023-05-05T06:30:08.403Z,95012.00
2023-05-05T06:31:08.301Z,95010.00
2023-05-05T06:32:08.221Z,95008.00
2023-05-05T06:33:08.397Z,95005.00
2023-05-05T06:34:08.198Z,95005.00
2023-05-05T06:35:08.240Z,95003.00
2023-05-05T06:36:08.230Z,95003.00
2023-05-05T06:37:08.210Z,95001.00
2023-05-05T06:38:08.177Z,95003.00
2023-05-05T06:39:09.949Z,95005.00
2023-05-05T06:40:08.388Z,95008.00
2023-05-05T06:41:08.126Z,95008.00
2023-05-05T06:42:08.146Z,95005.00
2023-05-05T06:43:08.132Z,95006.00
2023-05-05T06:44:08.167Z,95006.00
2023-05-05T06:45:08.154Z,95003.00
2023-05-05T06:46:08.116Z,95003.00
2023-05-05T06:47:08.146Z,95001.00
2023-05-05T06:48:08.246Z,94999.00
2023-05-05T06:49:08.189Z,94999.00
2023-05-05T06:50:08.270Z,94997.00
2023-05-05T06:51:08.064Z,94995.00
2023-05-05T06:52:08.145Z,94995.00
2023-05-05T06:53:08.146Z,94995.00
2023-05-05T06:54:08.337Z,94995.00
2023-05-05T06:55:08.255Z,94995.00
2023-05-05T06:56:08.258Z,94995.00
2023-05-05T06:57:09.916Z,94993.00
2023-05-05T06:58:08.360Z,94995.00
2023-05-05T06:59:08.423Z,94993.00
2023-05-05T07:00:08.667Z,94995.00
2023-05-05T07:01:08.494Z,94997.00
2023-05-05T07:02:08.528Z,94995.00
2023-05-05T07:03:08.565Z,94993.00
2023-05-05T07:04:08.932Z,94991.00
2023-05-05T07:05:08.863Z,94989.00
2023-05-05T07:06:08.660Z,94989.00
2023-05-05T07:07:08.672Z,94987.00
2023-05-05T07:08:08.755Z,94989.00
2023-05-05T07:09:09.369Z,94985.00
2023-05-05T07:10:09.019Z,94987.00
2023-05-05T07:11:08.811Z,94985.00
2023-05-05T07:12:08.922Z,94985.00
2023-05-05T07:13:09.135Z,94987.00
2023-05-05T07:14:09.125Z,94983.00
2023-05-05T07:15:23.317Z,94989.00
2023-05-05T07:16:10.056Z,94985.00
2023-05-05T07:17:09.009Z,94987.00
2023-05-05T07:18:08.935Z,94985.00
2023-05-05T07:19:08.910Z,94985.00
2023-05-05T07:20:09.127Z,94975.00
2023-05-05T07:21:08.932Z,94979.00
2023-05-05T07:22:08.945Z,94977.00
2023-05-05T07:23:08.873Z,94977.00
2023-05-05T07:24:08.934Z,94973.00
2023-05-05T07:25:08.932Z,94977.00
2023-05-05T07:26:08.858Z,94973.00
2023-05-05T07:27:08.850Z,94973.00
2023-05-05T07:28:08.850Z,94971.00
2023-05-05T07:29:08.890Z,94967.00
2023-05-05T07:30:12.576Z,94967.00
2023-05-05T07:31:09.847Z,94967.00
2023-05-05T07:32:08.881Z,94965.00
2023-05-05T07:33:08.898Z,94963.00
2023-05-05T07:34:08.878Z,94959.00
2023-05-05T07:35:08.881Z,94963.00
2023-05-05T07:36:08.798Z,94959.00
2023-05-05T07:37:08.835Z,94959.00
2023-05-05T07:38:10.801Z,94959.00
2023-05-05T07:39:08.847Z,94957.00
2023-05-05T07:40:09.641Z,94955.00
2023-05-05T07:41:08.751Z,94953.00
2023-05-05T07:42:08.922Z,94953.00
2023-05-05T07:43:08.726Z,94951.00
2023-05-05T07:44:08.705Z,94950.00
2023-05-05T07:45:08.728Z,94944.00
2023-05-05T07:46:08.798Z,94944.00
2023-05-05T07:47:08.736Z,94944.00
2023-05-05T07:48:08.724Z,94942.00
2023-05-05T07:49:08.696Z,94940.00
2023-05-05T07:50:08.854Z,94938.00
2023-05-05T07:51:08.752Z,94938.00
2023-05-05T07:52:08.800Z,94938.00
2023-05-05T07:53:14.324Z,94938.00
2023-05-05T07:54:09.863Z,94938.00
2023-05-05T07:55:08.747Z,94938.00
2023-05-05T07:56:08.772Z,94936.00
2023-05-05T07:57:08.823Z,94932.00
2023-05-05T07:58:08.761Z,94934.00
2023-05-05T07:59:08.722Z,94934.00
2023-05-05T08:00:08.897Z,94934.00
2023-05-05T08:01:08.719Z,94930.00
2023-05-05T08:02:08.765Z,94928.00
2023-05-05T08:03:11.247Z,94928.00
2023-05-05T08:04:08.971Z,94928.00
2023-05-05T08:05:09.106Z,94928.00
2023-05-05T08:06:08.671Z,94928.00
2023-05-05T08:07:08.663Z,94928.00
2023-05-05T08:08:08.678Z,94928.00
2023-05-05T08:09:08.773Z,94926.00
2023-05-05T08:10:08.720Z,94924.00
2023-05-05T08:11:08.642Z,94922.00
2023-05-05T08:12:08.646Z,94922.00
2023-05-05T08:13:08.653Z,94924.00
2023-05-05T08:14:08.645Z,94922.00
2023-05-05T08:15:08.941Z,94920.00
2023-05-05T08:16:08.680Z,94918.00
2023-05-05T08:17:08.918Z,94918.00
2023-05-05T08:18:08.575Z,94918.00
2023-05-05T08:19:21.082Z,94916.00
2023-05-05T08:20:09.597Z,94910.00
2023-05-05T08:21:08.764Z,94910.00
2023-05-05T08:22:08.556Z,94910.00
2023-05-05T08:23:08.579Z,94912.00
2023-05-05T08:24:09.404Z,94908.00
2023-05-05T08:25:08.809Z,94906.00
2023-05-05T08:26:08.548Z,94908.00
2023-05-05T08:27:08.543Z,94904.00
2023-05-05T08:28:08.521Z,94897.00
2023-05-05T08:29:08.698Z,94904.00
2023-05-05T08:30:08.511Z,94895.00
2023-05-05T08:31:08.628Z,94893.00
2023-05-05T08:32:08.619Z,94891.00
2023-05-05T08:33:08.718Z,94891.00
2023-05-05T08:34:08.933Z,94889.00
2023-05-05T08:35:09.107Z,94887.00
2023-05-05T08:36:08.914Z,94887.00
2023-05-05T08:37:08.911Z,94883.00
2023-05-05T08:38:08.979Z,94881.00
2023-05-05T08:39:09.054Z,94881.00
2023-05-05T08:40:09.069Z,94879.00
2023-05-05T08:41:09.271Z,94879.00
2023-05-05T08:42:09.143Z,94877.00
2023-05-05T08:43:09.235Z,94875.00
2023-05-05T08:44:09.448Z,94875.00
2023-05-05T08:45:09.713Z,94873.00
2023-05-05T08:46:09.925Z,94869.00
2023-05-05T08:47:09.424Z,94867.00
2023-05-05T08:48:09.463Z,94869.00
2023-05-05T08:49:09.424Z,94867.00
2023-05-05T08:50:09.565Z,94865.00
2023-05-05T08:51:09.518Z,94863.00
2023-05-05T08:52:09.596Z,94861.00
2023-05-05T08:53:09.706Z,94859.00
2023-05-05T08:54:09.683Z,94861.00
2023-05-05T08:55:09.830Z,94861.00
2023-05-05T08:56:09.808Z,94863.00
2023-05-05T08:57:09.848Z,94861.00
2023-05-05T08:58:09.938Z,94859.00
2023-05-05T08:59:09.924Z,94859.00
2023-05-05T09:00:09.950Z,94861.00
2023-05-05T09:01:10.024Z,94858.00
2023-05-05T09:02:10.053Z,94859.00
2023-05-05T09:03:10.091Z,94858.00
2023-05-05T09:04:10.047Z,94856.00
2023-05-05T09:05:10.389Z,94854.00
2023-05-05T09:06:10.160Z,94856.00
2023-05-05T09:07:10.220Z,94856.00
2023-05-05T09:08:10.239Z,94852.00
2023-05-05T09:09:10.293Z,94852.00
2023-05-05T09:10:10.364Z,94852.00
2023-05-05T09:11:10.371Z,94850.00
2023-05-05T09:12:10.961Z,94850.00
2023-05-05T09:13:11.493Z,94846.00
2023-05-05T09:14:10.530Z,94846.00
2023-05-05T09:15:10.804Z,94844.00
2023-05-05T09:16:10.603Z,94842.00
2023-05-05T09:17:10.647Z,94844.00
2023-05-05T09:18:10.713Z,94842.00
2023-05-05T09:19:10.679Z,94840.00
2023-05-05T09:20:10.778Z,94838.00
2023-05-05T09:21:10.797Z,94838.00
2023-05-05T09:22:10.835Z,94838.00
2023-05-05T09:23:10.897Z,94836.00
2023-05-05T09:24:10.938Z,94834.00
2023-05-05T09:25:10.962Z,94832.00
2023-05-05T09:26:11.921Z,94834.00
2023-05-05T09:27:11.052Z,94834.00
2023-05-05T09:28:11.343Z,94826.00
2023-05-05T09:29:11.475Z,94826.00
2023-05-05T09:30:11.255Z,94828.00
2023-05-05T09:31:11.364Z,94824.00
2023-05-05T09:32:11.418Z,94822.00
2023-05-05T09:33:11.611Z,94822.00
2023-05-05T09:34:11.464Z,94820.00
2023-05-05T09:35:11.557Z,94818.00
2023-05-05T09:36:11.561Z,94820.00
2023-05-05T09:37:11.600Z,94818.00
2023-05-05T09:38:11.643Z,94818.00
2023-05-05T09:39:12.033Z,94814.00
2023-05-05T09:40:11.777Z,94812.00
2023-05-05T09:41:11.773Z,94811.00
2023-05-05T09:42:11.845Z,94809.00
2023-05-05T09:43:11.899Z,94811.00
2023-05-05T09:44:12.035Z,94807.00
2023-05-05T09:45:12.057Z,94807.00
2023-05-05T09:46:11.993Z,94805.00
2023-05-05T09:47:26.041Z,94801.00
2023-05-05T09:48:13.126Z,94799.00
2023-05-05T09:49:12.025Z,94799.00
2023-05-05T09:50:11.998Z,94797.00
2023-05-05T09:51:11.988Z,94797.00
2023-05-05T09:52:11.975Z,94795.00
2023-05-05T09:53:12.001Z,94793.00
2023-05-05T09:54:12.022Z,94793.00
2023-05-05T09:55:11.977Z,94787.00
2023-05-05T09:56:11.945Z,94787.00
2023-05-05T09:57:11.963Z,94789.00
2023-05-05T09:58:11.976Z,94783.00
2023-05-05T09:59:11.999Z,94781.00
2023-05-05T10:00:12.128Z,94779.00
2023-05-05T10:01:12.006Z,94777.00
2023-05-05T10:02:11.962Z,94777.00
2023-05-05T10:03:12.055Z,94775.00
2023-05-05T10:04:12.942Z,94775.00
2023-05-05T10:05:12.073Z,94771.00
2023-05-05T10:06:12.062Z,94769.00
2023-05-05T10:07:12.109Z,94769.00
2023-05-05T10:08:12.153Z,94771.00
2023-05-05T10:09:12.176Z,94765.00
2023-05-05T10:10:12.246Z,94765.00
2023-05-05T10:11:12.220Z,94771.00
2023-05-05T10:12:12.345Z,94769.00
2023-05-05T10:13:12.382Z,94762.00
2023-05-05T10:14:12.335Z,94762.00
2023-05-05T10:15:12.388Z,94762.00
2023-05-05T10:16:12.486Z,94760.00
2023-05-05T10:17:12.811Z,94760.00
2023-05-05T10:18:13.039Z,94758.00
2023-05-05T10:19:13.483Z,94756.00
2023-05-05T10:20:12.551Z,94754.00
2023-05-05T10:21:12.616Z,94756.00
2023-05-05T10:22:12.627Z,94752.00
2023-05-05T10:23:12.967Z,94750.00
2023-05-05T10:24:12.726Z,94752.00
2023-05-05T10:25:12.765Z,94752.00
2023-05-05T10:26:12.765Z,94748.00
2023-05-05T10:27:12.805Z,94748.00
2023-05-05T10:28:12.950Z,94746.00
2023-05-05T10:29:12.925Z,94748.00
2023-05-05T10:30:13.476Z,94746.00
2023-05-05T10:31:24.489Z,94746.00
2023-05-05T10:32:40.694Z,94742.00
2023-05-05T10:33:30.268Z,94736.00
2023-05-05T10:34:14.055Z,94738.00
2023-05-05T10:35:12.925Z,94734.00
2023-05-05T10:36:13.009Z,94734.00
2023-05-05T10:37:13.437Z,94730.00
2023-05-05T10:38:13.072Z,94730.00
2023-05-05T10:39:12.945Z,94726.00
2023-05-05T10:40:13.017Z,94726.00
2023-05-05T10:41:12.896Z,94720.00
2023-05-05T10:42:12.905Z,94720.00
2023-05-05T10:43:12.953Z,94720.00
2023-05-05T10:44:12.897Z,94717.00
2023-05-05T10:45:13.036Z,94713.00
2023-05-05T10:46:12.914Z,94713.00
2023-05-05T10:47:12.850Z,94713.00
2023-05-05T10:48:12.935Z,94707.00
2023-05-05T10:49:13.542Z,94707.00
2023-05-05T10:50:13.034Z,94711.00
2023-05-05T10:51:15.329Z,94705.00
2023-05-05T10:52:13.848Z,94703.00
2023-05-05T10:53:12.815Z,94705.00
2023-05-05T10:54:12.950Z,94701.00
2023-05-05T10:55:13.175Z,94701.00
2023-05-05T10:56:12.832Z,94699.00
2023-05-05T10:57:12.760Z,94691.00
2023-05-05T10:58:12.812Z,94689.00
2023-05-05T10:59:12.796Z,94689.00
2023-05-05T11:00:15.071Z,94685.00
2023-05-05T11:01:12.795Z,94685.00
2023-05-05T11:02:12.747Z,94681.00
2023-05-05T11:03:12.825Z,94679.00
2023-05-05T11:04:12.778Z,94677.00
2023-05-05T11:05:12.876Z,94677.00
2023-05-05T11:06:12.863Z,94679.00
2023-05-05T11:07:15.132Z,94673.00
2023-05-05T11:08:12.851Z,94671.00
2023-05-05T11:09:12.859Z,94670.00
2023-05-05T11:10:12.845Z,94668.00
2023-05-05T11:11:12.850Z,94663.00
2023-05-05T11:12:12.833Z,94658.00
2023-05-05T11:13:12.885Z,94658.00
2023-05-05T11:14:13.778Z,94658.00
2023-05-05T11:15:12.955Z,94658.00
2023-05-05T11:16:12.875Z,94652.00
2023-05-05T11:17:12.854Z,94650.00
2023-05-05T11:18:12.849Z,94652.00
2023-05-05T11:19:12.823Z,94640.00
2023-05-05T11:20:12.817Z,94640.00
2023-05-05T11:21:12.881Z,94636.00
2023-05-05T11:22:12.788Z,94636.00
2023-05-05T11:23:15.220Z,94632.00
2023-05-05T11:24:12.779Z,94630.00
2023-05-05T11:25:12.765Z,94628.00
2023-05-05T11:26:12.741Z,94626.00
2023-05-05T11:27:12.716Z,94626.00
2023-05-05T11:28:12.727Z,94624.00
2023-05-05T11:29:12.744Z,94624.00
2023-05-05T11:30:12.845Z,94622.00
2023-05-05T11:31:12.723Z,94618.00
2023-05-05T11:32:12.689Z,94618.00
2023-05-05T11:33:12.696Z,94618.00
2023-05-05T11:34:12.684Z,94617.00
2023-05-05T11:35:12.700Z,94613.00
2023-05-05T11:36:12.718Z,94615.00
2023-05-05T11:37:12.735Z,94615.00
2023-05-05T11:38:12.694Z,94611.00
2023-05-05T11:39:12.657Z,94611.00
2023-05-05T11:40:12.666Z,94607.00
2023-05-05T11:41:12.708Z,94605.00
2023-05-05T11:42:12.663Z,94605.00
2023-05-05T11:43:12.668Z,94601.00
2023-05-05T11:44:12.624Z,94595.00
2023-05-05T11:45:12.609Z,94597.00